sensor_id;sensor_type;location;lat;lon;timestamp;P1;durP1;ratioP1;P2;durP2;ratioP2
29202;SDS011;16245;51.170;4.884;2022-08-19T00:01:17;8.88;;;8.05;;
29202;SDS011;16245;51.170;4.884;2022-08-19T00:03:43;7.78;;;7.15;;
29202;SDS011;16245;51.170;4.884;2022-08-19T00:06:08;10.07;;;8.95;;
29202;SDS011;16245;51.170;4.884;2022-08-19T00:08:34;8.63;;;7.80;;
29202;SDS011;16245;51.170;4.884;2022-08-19T00:11:00;8.63;;;7.78;;
29202;SDS011;16245;51.170;4.884;2022-08-19T00:13:26;9.48;;;8.57;;
29202;SDS011;16245;51.170;4.884;2022-08-19T00:15:53;10.48;;;9.38;;
29202;SDS011;16245;51.170;4.884;2022-08-19T00:18:19;9.52;;;8.63;;
29202;SDS011;16245;51.170;4.884;2022-08-19T00:20:45;10.43;;;9.43;;
29202;SDS011;16245;51.170;4.884;2022-08-19T00:23:11;10.98;;;9.98;;
29202;SDS011;16245;51.170;4.884;2022-08-19T00:25:37;9.52;;;8.65;;
29202;SDS011;16245;51.170;4.884;2022-08-19T00:28:03;10.63;;;9.25;;
29202;SDS011;16245;51.170;4.884;2022-08-19T00:30:29;10.35;;;9.35;;
29202;SDS011;16245;51.170;4.884;2022-08-19T00:32:55;18.17;;;14.80;;
29202;SDS011;16245;51.170;4.884;2022-08-19T00:35:21;18.40;;;15.70;;
29202;SDS011;16245;51.170;4.884;2022-08-19T00:37:48;15.60;;;14.10;;
29202;SDS011;16245;51.170;4.884;2022-08-19T00:40:15;21.42;;;19.33;;
29202;SDS011;16245;51.170;4.884;2022-08-19T00:42:42;17.38;;;14.98;;
29202;SDS011;16245;51.170;4.884;2022-08-19T00:45:11;12.55;;;11.30;;
29202;SDS011;16245;51.170;4.884;2022-08-19T00:47:40;16.90;;;14.52;;
29202;SDS011;16245;51.170;4.884;2022-08-19T00:50:06;17.42;;;15.27;;
29202;SDS011;16245;51.170;4.884;2022-08-19T00:52:33;16.42;;;14.93;;
29202;SDS011;16245;51.170;4.884;2022-08-19T00:55:03;15.90;;;14.50;;
29202;SDS011;16245;51.170;4.884;2022-08-19T00:57:38;18.05;;;15.70;;
29202;SDS011;16245;51.170;4.884;2022-08-19T01:00:07;21.80;;;18.50;;
29202;SDS011;16245;51.170;4.884;2022-08-19T01:02:36;24.40;;;21.23;;
29202;SDS011;16245;51.170;4.884;2022-08-19T01:05:04;22.65;;;19.05;;
29202;SDS011;16245;51.170;4.884;2022-08-19T01:07:33;21.75;;;19.52;;
29202;SDS011;16245;51.170;4.884;2022-08-19T01:10:00;26.33;;;23.63;;
29202;SDS011;16245;51.170;4.884;2022-08-19T01:12:27;24.98;;;22.42;;
29202;SDS011;16245;51.170;4.884;2022-08-19T01:14:53;19.65;;;17.77;;
29202;SDS011;16245;51.170;4.884;2022-08-19T01:17:20;19.65;;;17.67;;
29202;SDS011;16245;51.170;4.884;2022-08-19T01:19:46;20.83;;;18.77;;
29202;SDS011;16245;51.170;4.884;2022-08-19T01:22:19;21.73;;;18.05;;
29202;SDS011;16245;51.170;4.884;2022-08-19T01:24:52;24.30;;;21.90;;
29202;SDS011;16245;51.170;4.884;2022-08-19T01:27:18;19.25;;;17.35;;
29202;SDS011;16245;51.170;4.884;2022-08-19T01:29:44;22.88;;;19.20;;
29202;SDS011;16245;51.170;4.884;2022-08-19T01:32:14;21.65;;;18.95;;
29202;SDS011;16245;51.170;4.884;2022-08-19T01:34:41;30.63;;;27.50;;
29202;SDS011;16245;51.170;4.884;2022-08-19T01:37:12;27.48;;;24.30;;
29202;SDS011;16245;51.170;4.884;2022-08-19T01:39:39;28.73;;;25.65;;
29202;SDS011;16245;51.170;4.884;2022-08-19T01:42:06;30.58;;;27.08;;
29202;SDS011;16245;51.170;4.884;2022-08-19T01:44:36;35.25;;;31.50;;
29202;SDS011;16245;51.170;4.884;2022-08-19T01:47:02;37.47;;;32.55;;
29202;SDS011;16245;51.170;4.884;2022-08-19T01:49:29;38.85;;;34.47;;
29202;SDS011;16245;51.170;4.884;2022-08-19T01:51:55;48.95;;;38.40;;
29202;SDS011;16245;51.170;4.884;2022-08-19T01:54:21;46.55;;;36.97;;
29202;SDS011;16245;51.170;4.884;2022-08-19T01:56:49;46.45;;;37.55;;
29202;SDS011;16245;51.170;4.884;2022-08-19T01:59:21;50.90;;;40.90;;
29202;SDS011;16245;51.170;4.884;2022-08-19T02:01:48;45.47;;;37.63;;
29202;SDS011;16245;51.170;4.884;2022-08-19T02:04:14;53.22;;;42.15;;
29202;SDS011;16245;51.170;4.884;2022-08-19T02:06:40;47.70;;;36.83;;
29202;SDS011;16245;51.170;4.884;2022-08-19T02:09:06;56.58;;;42.88;;
29202;SDS011;16245;51.170;4.884;2022-08-19T02:11:34;60.38;;;46.60;;
29202;SDS011;16245;51.170;4.884;2022-08-19T02:14:03;57.38;;;43.10;;
29202;SDS011;16245;51.170;4.884;2022-08-19T02:16:30;62.10;;;45.30;;
29202;SDS011;16245;51.170;4.884;2022-08-19T02:18:57;58.33;;;46.83;;
29202;SDS011;16245;51.170;4.884;2022-08-19T02:21:25;57.65;;;47.08;;
29202;SDS011;16245;51.170;4.884;2022-08-19T02:23:51;51.75;;;41.58;;
29202;SDS011;16245;51.170;4.884;2022-08-19T02:26:17;60.42;;;48.70;;
29202;SDS011;16245;51.170;4.884;2022-08-19T02:28:44;63.95;;;49.58;;
29202;SDS011;16245;51.170;4.884;2022-08-19T02:31:13;53.50;;;41.25;;
29202;SDS011;16245;51.170;4.884;2022-08-19T02:33:42;58.78;;;45.85;;
29202;SDS011;16245;51.170;4.884;2022-08-19T02:36:09;58.67;;;44.72;;
29202;SDS011;16245;51.170;4.884;2022-08-19T02:38:36;53.70;;;41.83;;
29202;SDS011;16245;51.170;4.884;2022-08-19T02:41:24;52.42;;;43.25;;
29202;SDS011;16245;51.170;4.884;2022-08-19T02:43:50;54.63;;;45.05;;
29202;SDS011;16245;51.170;4.884;2022-08-19T02:48:53;61.35;;;47.13;;
29202;SDS011;16245;51.170;4.884;2022-08-19T02:51:26;55.72;;;43.83;;
29202;SDS011;16245;51.170;4.884;2022-08-19T02:53:54;60.90;;;46.03;;
29202;SDS011;16245;51.170;4.884;2022-08-19T02:56:19;57.50;;;43.33;;
29202;SDS011;16245;51.170;4.884;2022-08-19T02:58:46;57.20;;;43.60;;
29202;SDS011;16245;51.170;4.884;2022-08-19T03:01:23;52.47;;;42.72;;
29202;SDS011;16245;51.170;4.884;2022-08-19T03:03:52;55.40;;;43.47;;
29202;SDS011;16245;51.170;4.884;2022-08-19T03:06:18;57.58;;;43.85;;
29202;SDS011;16245;51.170;4.884;2022-08-19T03:08:45;53.90;;;43.85;;
29202;SDS011;16245;51.170;4.884;2022-08-19T03:11:16;57.05;;;43.25;;
29202;SDS011;16245;51.170;4.884;2022-08-19T03:13:47;54.88;;;45.03;;
29202;SDS011;16245;51.170;4.884;2022-08-19T03:16:16;55.50;;;44.28;;
29202;SDS011;16245;51.170;4.884;2022-08-19T03:18:43;61.97;;;47.05;;
29202;SDS011;16245;51.170;4.884;2022-08-19T03:21:09;57.45;;;46.22;;
29202;SDS011;16245;51.170;4.884;2022-08-19T03:23:44;65.55;;;48.47;;
29202;SDS011;16245;51.170;4.884;2022-08-19T03:26:10;58.42;;;43.92;;
29202;SDS011;16245;51.170;4.884;2022-08-19T03:28:35;57.72;;;44.88;;
29202;SDS011;16245;51.170;4.884;2022-08-19T03:31:05;58.50;;;45.55;;
29202;SDS011;16245;51.170;4.884;2022-08-19T03:33:34;61.05;;;48.30;;
29202;SDS011;16245;51.170;4.884;2022-08-19T03:38:35;59.22;;;46.17;;
29202;SDS011;16245;51.170;4.884;2022-08-19T03:41:04;54.45;;;44.40;;
29202;SDS011;16245;51.170;4.884;2022-08-19T03:43:36;62.03;;;45.33;;
29202;SDS011;16245;51.170;4.884;2022-08-19T03:46:11;58.25;;;43.13;;
29202;SDS011;16245;51.170;4.884;2022-08-19T03:48:40;54.13;;;44.20;;
29202;SDS011;16245;51.170;4.884;2022-08-19T03:51:07;58.78;;;45.95;;
29202;SDS011;16245;51.170;4.884;2022-08-19T03:53:40;57.08;;;44.95;;
29202;SDS011;16245;51.170;4.884;2022-08-19T03:56:06;53.40;;;42.55;;
29202;SDS011;16245;51.170;4.884;2022-08-19T03:58:34;58.08;;;44.70;;
29202;SDS011;16245;51.170;4.884;2022-08-19T04:01:00;55.53;;;43.70;;
29202;SDS011;16245;51.170;4.884;2022-08-19T04:03:26;62.40;;;49.13;;
29202;SDS011;16245;51.170;4.884;2022-08-19T04:05:52;62.70;;;47.75;;
29202;SDS011;16245;51.170;4.884;2022-08-19T04:08:19;63.17;;;48.78;;
29202;SDS011;16245;51.170;4.884;2022-08-19T04:10:47;65.47;;;49.97;;
29202;SDS011;16245;51.170;4.884;2022-08-19T04:13:14;67.13;;;48.92;;
29202;SDS011;16245;51.170;4.884;2022-08-19T04:15:41;70.50;;;49.95;;
29202;SDS011;16245;51.170;4.884;2022-08-19T04:18:08;73.05;;;50.78;;
29202;SDS011;16245;51.170;4.884;2022-08-19T04:20:42;63.15;;;47.70;;
29202;SDS011;16245;51.170;4.884;2022-08-19T04:23:10;64.05;;;48.15;;
29202;SDS011;16245;51.170;4.884;2022-08-19T04:25:41;66.38;;;46.47;;
29202;SDS011;16245;51.170;4.884;2022-08-19T04:28:08;65.18;;;46.10;;
29202;SDS011;16245;51.170;4.884;2022-08-19T04:30:40;63.53;;;47.20;;
29202;SDS011;16245;51.170;4.884;2022-08-19T04:33:11;58.22;;;46.42;;
29202;SDS011;16245;51.170;4.884;2022-08-19T04:35:39;64.43;;;46.28;;
29202;SDS011;16245;51.170;4.884;2022-08-19T04:38:06;64.50;;;47.13;;
29202;SDS011;16245;51.170;4.884;2022-08-19T04:40:33;68.68;;;50.45;;
29202;SDS011;16245;51.170;4.884;2022-08-19T04:43:18;69.60;;;48.83;;
29202;SDS011;16245;51.170;4.884;2022-08-19T04:45:44;67.93;;;47.83;;
29202;SDS011;16245;51.170;4.884;2022-08-19T04:48:11;59.95;;;44.95;;
29202;SDS011;16245;51.170;4.884;2022-08-19T04:50:39;58.42;;;44.50;;
29202;SDS011;16245;51.170;4.884;2022-08-19T04:53:06;61.00;;;44.25;;
29202;SDS011;16245;51.170;4.884;2022-08-19T04:55:32;61.00;;;42.80;;
29202;SDS011;16245;51.170;4.884;2022-08-19T04:57:58;58.42;;;42.45;;
29202;SDS011;16245;51.170;4.884;2022-08-19T05:00:24;58.55;;;41.90;;
29202;SDS011;16245;51.170;4.884;2022-08-19T05:02:50;57.90;;;40.90;;
29202;SDS011;16245;51.170;4.884;2022-08-19T05:05:16;59.17;;;40.72;;
29202;SDS011;16245;51.170;4.884;2022-08-19T05:07:42;56.20;;;41.47;;
29202;SDS011;16245;51.170;4.884;2022-08-19T05:10:07;56.25;;;39.45;;
29202;SDS011;16245;51.170;4.884;2022-08-19T05:12:33;59.17;;;39.88;;
29202;SDS011;16245;51.170;4.884;2022-08-19T05:14:59;53.45;;;41.10;;
29202;SDS011;16245;51.170;4.884;2022-08-19T05:17:27;57.00;;;39.95;;
29202;SDS011;16245;51.170;4.884;2022-08-19T05:19:53;57.70;;;41.17;;
29202;SDS011;16245;51.170;4.884;2022-08-19T05:22:37;56.30;;;40.17;;
29202;SDS011;16245;51.170;4.884;2022-08-19T05:25:04;56.40;;;39.30;;
29202;SDS011;16245;51.170;4.884;2022-08-19T05:27:32;53.63;;;37.67;;
29202;SDS011;16245;51.170;4.884;2022-08-19T05:29:58;58.75;;;40.65;;
29202;SDS011;16245;51.170;4.884;2022-08-19T05:32:24;50.90;;;37.35;;
29202;SDS011;16245;51.170;4.884;2022-08-19T05:34:50;55.50;;;38.65;;
29202;SDS011;16245;51.170;4.884;2022-08-19T05:37:16;55.58;;;38.75;;
29202;SDS011;16245;51.170;4.884;2022-08-19T05:39:42;49.10;;;37.80;;
29202;SDS011;16245;51.170;4.884;2022-08-19T05:42:09;52.78;;;37.75;;
29202;SDS011;16245;51.170;4.884;2022-08-19T05:44:37;52.28;;;38.28;;
29202;SDS011;16245;51.170;4.884;2022-08-19T05:47:10;53.17;;;36.67;;
29202;SDS011;16245;51.170;4.884;2022-08-19T05:49:37;45.10;;;33.25;;
29202;SDS011;16245;51.170;4.884;2022-08-19T05:52:04;42.83;;;33.03;;
29202;SDS011;16245;51.170;4.884;2022-08-19T05:54:31;48.80;;;33.55;;
29202;SDS011;16245;51.170;4.884;2022-08-19T05:56:57;43.10;;;31.88;;
29202;SDS011;16245;51.170;4.884;2022-08-19T05:59:23;44.28;;;32.05;;
29202;SDS011;16245;51.170;4.884;2022-08-19T06:01:49;43.03;;;31.25;;
29202;SDS011;16245;51.170;4.884;2022-08-19T06:04:17;44.85;;;32.13;;
29202;SDS011;16245;51.170;4.884;2022-08-19T06:06:45;42.58;;;30.90;;
29202;SDS011;16245;51.170;4.884;2022-08-19T06:09:17;40.97;;;30.50;;
29202;SDS011;16245;51.170;4.884;2022-08-19T06:11:53;43.63;;;31.05;;
29202;SDS011;16245;51.170;4.884;2022-08-19T06:14:23;43.20;;;30.52;;
29202;SDS011;16245;51.170;4.884;2022-08-19T06:16:50;44.28;;;30.02;;
29202;SDS011;16245;51.170;4.884;2022-08-19T06:19:17;42.97;;;29.60;;
29202;SDS011;16245;51.170;4.884;2022-08-19T06:21:46;44.90;;;30.42;;
29202;SDS011;16245;51.170;4.884;2022-08-19T06:24:13;41.22;;;29.42;;
29202;SDS011;16245;51.170;4.884;2022-08-19T06:26:42;44.10;;;29.45;;
29202;SDS011;16245;51.170;4.884;2022-08-19T06:29:10;38.13;;;27.80;;
29202;SDS011;16245;51.170;4.884;2022-08-19T06:31:40;35.17;;;25.60;;
29202;SDS011;16245;51.170;4.884;2022-08-19T06:34:08;34.50;;;25.70;;
29202;SDS011;16245;51.170;4.884;2022-08-19T06:36:36;36.97;;;25.10;;
29202;SDS011;16245;51.170;4.884;2022-08-19T06:39:13;33.95;;;23.85;;
29202;SDS011;16245;51.170;4.884;2022-08-19T06:41:44;34.33;;;24.17;;
29202;SDS011;16245;51.170;4.884;2022-08-19T06:44:12;28.02;;;21.30;;
29202;SDS011;16245;51.170;4.884;2022-08-19T06:46:39;30.23;;;21.17;;
29202;SDS011;16245;51.170;4.884;2022-08-19T06:49:05;26.33;;;19.63;;
29202;SDS011;16245;51.170;4.884;2022-08-19T06:51:34;25.42;;;20.08;;
29202;SDS011;16245;51.170;4.884;2022-08-19T06:54:00;27.88;;;20.13;;
29202;SDS011;16245;51.170;4.884;2022-08-19T06:56:27;30.90;;;19.50;;
29202;SDS011;16245;51.170;4.884;2022-08-19T06:58:58;32.78;;;20.02;;
29202;SDS011;16245;51.170;4.884;2022-08-19T07:01:36;27.13;;;20.08;;
29202;SDS011;16245;51.170;4.884;2022-08-19T07:04:05;30.35;;;19.73;;
29202;SDS011;16245;51.170;4.884;2022-08-19T07:06:31;29.70;;;19.95;;
29202;SDS011;16245;51.170;4.884;2022-08-19T07:08:58;30.30;;;19.55;;
29202;SDS011;16245;51.170;4.884;2022-08-19T07:11:24;33.65;;;19.65;;
29202;SDS011;16245;51.170;4.884;2022-08-19T07:13:49;29.65;;;19.08;;
29202;SDS011;16245;51.170;4.884;2022-08-19T07:16:16;25.30;;;17.90;;
29202;SDS011;16245;51.170;4.884;2022-08-19T07:18:44;25.70;;;17.88;;
29202;SDS011;16245;51.170;4.884;2022-08-19T07:21:12;24.63;;;17.95;;
29202;SDS011;16245;51.170;4.884;2022-08-19T07:23:40;26.98;;;18.30;;
29202;SDS011;16245;51.170;4.884;2022-08-19T07:26:14;31.77;;;18.45;;
29202;SDS011;16245;51.170;4.884;2022-08-19T07:28:42;27.40;;;17.08;;
29202;SDS011;16245;51.170;4.884;2022-08-19T07:31:13;25.20;;;16.80;;
29202;SDS011;16245;51.170;4.884;2022-08-19T07:33:42;32.47;;;18.70;;
29202;SDS011;16245;51.170;4.884;2022-08-19T07:36:08;28.00;;;16.58;;
29202;SDS011;16245;51.170;4.884;2022-08-19T07:38:42;26.90;;;17.67;;
29202;SDS011;16245;51.170;4.884;2022-08-19T07:41:11;28.13;;;16.63;;
29202;SDS011;16245;51.170;4.884;2022-08-19T07:43:38;28.40;;;16.05;;
29202;SDS011;16245;51.170;4.884;2022-08-19T07:46:05;26.80;;;17.50;;
29202;SDS011;16245;51.170;4.884;2022-08-19T07:48:31;28.73;;;16.85;;
29202;SDS011;16245;51.170;4.884;2022-08-19T07:50:58;24.48;;;16.05;;
29202;SDS011;16245;51.170;4.884;2022-08-19T07:53:29;24.63;;;15.68;;
29202;SDS011;16245;51.170;4.884;2022-08-19T07:55:56;23.20;;;15.95;;
29202;SDS011;16245;51.170;4.884;2022-08-19T07:58:29;27.65;;;16.75;;
29202;SDS011;16245;51.170;4.884;2022-08-19T08:01:01;28.42;;;16.55;;
29202;SDS011;16245;51.170;4.884;2022-08-19T08:03:28;30.30;;;17.30;;
29202;SDS011;16245;51.170;4.884;2022-08-19T08:06:13;22.90;;;15.63;;
29202;SDS011;16245;51.170;4.884;2022-08-19T08:08:59;25.27;;;15.18;;
29202;SDS011;16245;51.170;4.884;2022-08-19T08:11:36;27.73;;;15.98;;
29202;SDS011;16245;51.170;4.884;2022-08-19T08:14:02;22.60;;;14.45;;
29202;SDS011;16245;51.170;4.884;2022-08-19T08:16:30;25.20;;;15.18;;
29202;SDS011;16245;51.170;4.884;2022-08-19T08:18:58;23.50;;;15.30;;
29202;SDS011;16245;51.170;4.884;2022-08-19T08:21:24;22.35;;;13.88;;
29202;SDS011;16245;51.170;4.884;2022-08-19T08:23:49;18.92;;;12.32;;
29202;SDS011;16245;51.170;4.884;2022-08-19T08:26:17;15.82;;;13.32;;
29202;SDS011;16245;51.170;4.884;2022-08-19T08:28:42;17.45;;;14.77;;
29202;SDS011;16245;51.170;4.884;2022-08-19T08:31:08;19.77;;;15.27;;
29202;SDS011;16245;51.170;4.884;2022-08-19T08:33:34;19.90;;;15.00;;
29202;SDS011;16245;51.170;4.884;2022-08-19T08:36:00;16.85;;;12.85;;
29202;SDS011;16245;51.170;4.884;2022-08-19T08:38:27;17.23;;;13.20;;
29202;SDS011;16245;51.170;4.884;2022-08-19T08:40:56;18.42;;;13.95;;
29202;SDS011;16245;51.170;4.884;2022-08-19T08:43:38;17.40;;;13.48;;
29202;SDS011;16245;51.170;4.884;2022-08-19T08:49:04;19.92;;;14.68;;
29202;SDS011;16245;51.170;4.884;2022-08-19T08:54:37;13.73;;;12.32;;
29202;SDS011;16245;51.170;4.884;2022-08-19T08:57:15;16.33;;;13.30;;
29202;SDS011;16245;51.170;4.884;2022-08-19T08:59:47;14.65;;;11.40;;
29202;SDS011;16245;51.170;4.884;2022-08-19T09:02:17;16.83;;;12.50;;
29202;SDS011;16245;51.170;4.884;2022-08-19T09:04:43;20.45;;;13.45;;
29202;SDS011;16245;51.170;4.884;2022-08-19T09:09:48;18.98;;;14.45;;
29202;SDS011;16245;51.170;4.884;2022-08-19T09:12:31;16.58;;;13.57;;
29202;SDS011;16245;51.170;4.884;2022-08-19T09:15:09;17.38;;;12.88;;
29202;SDS011;16245;51.170;4.884;2022-08-19T09:17:37;15.88;;;13.00;;
29202;SDS011;16245;51.170;4.884;2022-08-19T09:22:34;17.30;;;12.70;;
29202;SDS011;16245;51.170;4.884;2022-08-19T09:25:01;22.00;;;12.13;;
29202;SDS011;16245;51.170;4.884;2022-08-19T09:27:27;14.40;;;12.00;;
29202;SDS011;16245;51.170;4.884;2022-08-19T09:29:53;15.63;;;12.13;;
29202;SDS011;16245;51.170;4.884;2022-08-19T09:32:20;14.02;;;11.63;;
29202;SDS011;16245;51.170;4.884;2022-08-19T09:34:46;17.42;;;13.65;;
29202;SDS011;16245;51.170;4.884;2022-08-19T09:37:12;14.70;;;13.20;;
29202;SDS011;16245;51.170;4.884;2022-08-19T09:39:38;16.65;;;12.85;;
29202;SDS011;16245;51.170;4.884;2022-08-19T09:42:07;14.85;;;12.45;;
29202;SDS011;16245;51.170;4.884;2022-08-19T09:44:39;13.45;;;11.57;;
29202;SDS011;16245;51.170;4.884;2022-08-19T09:47:05;15.55;;;11.30;;
29202;SDS011;16245;51.170;4.884;2022-08-19T09:49:32;15.50;;;12.00;;
29202;SDS011;16245;51.170;4.884;2022-08-19T09:51:58;15.02;;;12.10;;
29202;SDS011;16245;51.170;4.884;2022-08-19T09:54:24;14.82;;;11.20;;
29202;SDS011;16245;51.170;4.884;2022-08-19T09:56:51;14.32;;;11.85;;
29202;SDS011;16245;51.170;4.884;2022-08-19T09:59:20;12.40;;;10.18;;
29202;SDS011;16245;51.170;4.884;2022-08-19T10:01:46;14.05;;;11.00;;
29202;SDS011;16245;51.170;4.884;2022-08-19T10:04:12;14.15;;;11.18;;
29202;SDS011;16245;51.170;4.884;2022-08-19T10:06:38;13.02;;;11.13;;
29202;SDS011;16245;51.170;4.884;2022-08-19T10:09:07;14.30;;;12.15;;
29202;SDS011;16245;51.170;4.884;2022-08-19T10:11:36;11.80;;;10.38;;
29202;SDS011;16245;51.170;4.884;2022-08-19T10:14:04;15.20;;;11.55;;
29202;SDS011;16245;51.170;4.884;2022-08-19T10:16:33;12.90;;;11.30;;
29202;SDS011;16245;51.170;4.884;2022-08-19T10:19:01;14.65;;;10.95;;
29202;SDS011;16245;51.170;4.884;2022-08-19T10:21:29;14.55;;;10.07;;
29202;SDS011;16245;51.170;4.884;2022-08-19T10:23:58;10.55;;;9.32;;
29202;SDS011;16245;51.170;4.884;2022-08-19T10:26:27;12.70;;;9.40;;
29202;SDS011;16245;51.170;4.884;2022-08-19T10:28:55;13.38;;;10.20;;
29202;SDS011;16245;51.170;4.884;2022-08-19T10:31:23;9.90;;;8.45;;
29202;SDS011;16245;51.170;4.884;2022-08-19T10:33:50;11.48;;;9.07;;
29202;SDS011;16245;51.170;4.884;2022-08-19T10:36:24;10.13;;;8.35;;
29202;SDS011;16245;51.170;4.884;2022-08-19T10:38:53;11.70;;;8.20;;
29202;SDS011;16245;51.170;4.884;2022-08-19T10:41:24;12.18;;;7.78;;
29202;SDS011;16245;51.170;4.884;2022-08-19T10:43:56;8.23;;;7.20;;
29202;SDS011;16245;51.170;4.884;2022-08-19T10:46:25;9.68;;;7.03;;
29202;SDS011;16245;51.170;4.884;2022-08-19T10:48:52;9.85;;;7.07;;
29202;SDS011;16245;51.170;4.884;2022-08-19T10:51:19;7.50;;;6.10;;
29202;SDS011;16245;51.170;4.884;2022-08-19T10:54:04;8.75;;;6.50;;
29202;SDS011;16245;51.170;4.884;2022-08-19T10:56:30;9.95;;;7.43;;
29202;SDS011;16245;51.170;4.884;2022-08-19T10:59:16;8.27;;;7.15;;
29202;SDS011;16245;51.170;4.884;2022-08-19T11:01:47;9.32;;;6.70;;
29202;SDS011;16245;51.170;4.884;2022-08-19T11:04:13;9.15;;;7.18;;
29202;SDS011;16245;51.170;4.884;2022-08-19T11:06:43;11.50;;;9.68;;
29202;SDS011;16245;51.170;4.884;2022-08-19T11:09:10;11.30;;;9.68;;
29202;SDS011;16245;51.170;4.884;2022-08-19T11:11:36;12.98;;;9.63;;
29202;SDS011;16245;51.170;4.884;2022-08-19T11:14:09;11.48;;;10.23;;
29202;SDS011;16245;51.170;4.884;2022-08-19T11:16:37;12.25;;;9.60;;
29202;SDS011;16245;51.170;4.884;2022-08-19T11:19:04;10.38;;;8.75;;
29202;SDS011;16245;51.170;4.884;2022-08-19T11:21:33;9.10;;;7.63;;
29202;SDS011;16245;51.170;4.884;2022-08-19T11:24:11;10.10;;;7.35;;
29202;SDS011;16245;51.170;4.884;2022-08-19T11:26:40;9.43;;;8.52;;
29202;SDS011;16245;51.170;4.884;2022-08-19T11:29:07;9.13;;;8.23;;
29202;SDS011;16245;51.170;4.884;2022-08-19T11:31:38;10.18;;;8.70;;
29202;SDS011;16245;51.170;4.884;2022-08-19T11:34:07;9.68;;;7.65;;
29202;SDS011;16245;51.170;4.884;2022-08-19T11:36:37;10.75;;;8.45;;
29202;SDS011;16245;51.170;4.884;2022-08-19T11:39:05;12.07;;;8.30;;
29202;SDS011;16245;51.170;4.884;2022-08-19T11:41:31;11.43;;;8.32;;
29202;SDS011;16245;51.170;4.884;2022-08-19T11:43:57;12.05;;;9.07;;
29202;SDS011;16245;51.170;4.884;2022-08-19T11:46:24;13.57;;;9.02;;
29202;SDS011;16245;51.170;4.884;2022-08-19T11:48:52;10.13;;;7.68;;
29202;SDS011;16245;51.170;4.884;2022-08-19T11:51:21;12.15;;;7.72;;
29202;SDS011;16245;51.170;4.884;2022-08-19T11:53:49;12.30;;;9.43;;
29202;SDS011;16245;51.170;4.884;2022-08-19T11:56:15;11.70;;;9.50;;
29202;SDS011;16245;51.170;4.884;2022-08-19T11:58:42;12.95;;;11.15;;
29202;SDS011;16245;51.170;4.884;2022-08-19T12:01:08;10.82;;;9.43;;
29202;SDS011;16245;51.170;4.884;2022-08-19T12:03:36;18.05;;;11.70;;
29202;SDS011;16245;51.170;4.884;2022-08-19T12:06:03;15.77;;;10.70;;
29202;SDS011;16245;51.170;4.884;2022-08-19T12:08:30;11.52;;;10.25;;
29202;SDS011;16245;51.170;4.884;2022-08-19T12:10:56;16.85;;;11.50;;
29202;SDS011;16245;51.170;4.884;2022-08-19T12:13:22;11.98;;;9.52;;
29202;SDS011;16245;51.170;4.884;2022-08-19T12:15:47;11.95;;;10.15;;
29202;SDS011;16245;51.170;4.884;2022-08-19T12:18:13;10.18;;;8.75;;
29202;SDS011;16245;51.170;4.884;2022-08-19T12:20:39;10.65;;;9.55;;
29202;SDS011;16245;51.170;4.884;2022-08-19T12:23:08;12.13;;;10.10;;
29202;SDS011;16245;51.170;4.884;2022-08-19T12:25:35;13.40;;;10.93;;
29202;SDS011;16245;51.170;4.884;2022-08-19T12:28:02;12.50;;;10.35;;
29202;SDS011;16245;51.170;4.884;2022-08-19T12:30:28;13.38;;;11.98;;
29202;SDS011;16245;51.170;4.884;2022-08-19T12:32:54;16.05;;;14.40;;
29202;SDS011;16245;51.170;4.884;2022-08-19T12:35:20;14.30;;;12.75;;
29202;SDS011;16245;51.170;4.884;2022-08-19T12:37:46;14.15;;;10.77;;
29202;SDS011;16245;51.170;4.884;2022-08-19T12:40:14;12.48;;;10.63;;
29202;SDS011;16245;51.170;4.884;2022-08-19T12:42:40;11.00;;;9.90;;
29202;SDS011;16245;51.170;4.884;2022-08-19T12:45:07;12.10;;;10.15;;
29202;SDS011;16245;51.170;4.884;2022-08-19T12:47:37;11.85;;;10.68;;
29202;SDS011;16245;51.170;4.884;2022-08-19T12:50:04;12.02;;;9.88;;
29202;SDS011;16245;51.170;4.884;2022-08-19T12:52:33;11.38;;;9.85;;
29202;SDS011;16245;51.170;4.884;2022-08-19T12:55:02;11.85;;;9.13;;
29202;SDS011;16245;51.170;4.884;2022-08-19T12:57:29;13.00;;;10.27;;
29202;SDS011;16245;51.170;4.884;2022-08-19T13:00:09;10.98;;;8.60;;
29202;SDS011;16245;51.170;4.884;2022-08-19T13:02:42;10.30;;;9.20;;
29202;SDS011;16245;51.170;4.884;2022-08-19T13:05:11;15.75;;;9.93;;
29202;SDS011;16245;51.170;4.884;2022-08-19T13:07:39;14.23;;;8.55;;
29202;SDS011;16245;51.170;4.884;2022-08-19T13:10:06;12.25;;;9.73;;
29202;SDS011;16245;51.170;4.884;2022-08-19T13:12:34;12.40;;;7.97;;
29202;SDS011;16245;51.170;4.884;2022-08-19T13:15:00;10.13;;;7.55;;
29202;SDS011;16245;51.170;4.884;2022-08-19T13:17:26;9.93;;;6.93;;
29202;SDS011;16245;51.170;4.884;2022-08-19T13:19:52;9.98;;;7.68;;
29202;SDS011;16245;51.170;4.884;2022-08-19T13:22:17;8.20;;;6.10;;
29202;SDS011;16245;51.170;4.884;2022-08-19T13:24:43;7.95;;;6.75;;
29202;SDS011;16245;51.170;4.884;2022-08-19T13:27:09;7.75;;;6.43;;
29202;SDS011;16245;51.170;4.884;2022-08-19T13:29:35;7.68;;;5.35;;
29202;SDS011;16245;51.170;4.884;2022-08-19T13:32:19;6.38;;;4.80;;
29202;SDS011;16245;51.170;4.884;2022-08-19T13:35:03;4.95;;;4.55;;
29202;SDS011;16245;51.170;4.884;2022-08-19T13:37:29;6.38;;;3.35;;
29202;SDS011;16245;51.170;4.884;2022-08-19T13:40:18;6.82;;;3.90;;
29202;SDS011;16245;51.170;4.884;2022-08-19T13:42:49;5.10;;;4.38;;
29202;SDS011;16245;51.170;4.884;2022-08-19T13:45:17;5.45;;;3.90;;
29202;SDS011;16245;51.170;4.884;2022-08-19T13:47:52;4.38;;;3.42;;
29202;SDS011;16245;51.170;4.884;2022-08-19T13:50:20;5.05;;;4.13;;
29202;SDS011;16245;51.170;4.884;2022-08-19T13:52:47;3.97;;;3.60;;
29202;SDS011;16245;51.170;4.884;2022-08-19T13:55:14;4.55;;;3.65;;
29202;SDS011;16245;51.170;4.884;2022-08-19T13:57:40;4.85;;;3.20;;
29202;SDS011;16245;51.170;4.884;2022-08-19T14:00:16;5.03;;;3.60;;
29202;SDS011;16245;51.170;4.884;2022-08-19T14:02:44;5.10;;;3.42;;
29202;SDS011;16245;51.170;4.884;2022-08-19T14:05:11;6.03;;;4.20;;
29202;SDS011;16245;51.170;4.884;2022-08-19T14:07:38;4.50;;;3.53;;
29202;SDS011;16245;51.170;4.884;2022-08-19T14:10:05;3.47;;;2.70;;
29202;SDS011;16245;51.170;4.884;2022-08-19T14:12:33;3.67;;;3.38;;
29202;SDS011;16245;51.170;4.884;2022-08-19T14:14:59;4.35;;;3.50;;
29202;SDS011;16245;51.170;4.884;2022-08-19T14:17:25;4.53;;;3.45;;
29202;SDS011;16245;51.170;4.884;2022-08-19T14:19:57;3.47;;;3.17;;
29202;SDS011;16245;51.170;4.884;2022-08-19T14:22:25;2.70;;;2.50;;
29202;SDS011;16245;51.170;4.884;2022-08-19T14:24:51;5.10;;;2.92;;
29202;SDS011;16245;51.170;4.884;2022-08-19T14:27:17;3.03;;;2.55;;
29202;SDS011;16245;51.170;4.884;2022-08-19T14:29:42;5.20;;;3.40;;
29202;SDS011;16245;51.170;4.884;2022-08-19T14:32:09;4.88;;;3.83;;
29202;SDS011;16245;51.170;4.884;2022-08-19T14:34:35;4.50;;;3.05;;
29202;SDS011;16245;51.170;4.884;2022-08-19T14:37:02;6.35;;;3.90;;
29202;SDS011;16245;51.170;4.884;2022-08-19T14:39:28;6.13;;;5.05;;
29202;SDS011;16245;51.170;4.884;2022-08-19T14:41:53;4.68;;;3.92;;
29202;SDS011;16245;51.170;4.884;2022-08-19T14:44:19;5.30;;;3.92;;
29202;SDS011;16245;51.170;4.884;2022-08-19T14:46:45;9.07;;;5.55;;
29202;SDS011;16245;51.170;4.884;2022-08-19T14:49:10;5.50;;;4.65;;
29202;SDS011;16245;51.170;4.884;2022-08-19T14:51:36;5.75;;;5.15;;